Terminal Aerodrome Forecast
Issued by NWS Sterling, VA

Current Version | Previous Version | Text Only | Print | Product List | Glossary Off
Versions: 1 2 3 4 5 6 7 8 9 10 11 12 13 14 15 16 17 18 19 20 21 22 23 24 25 26 27 28

000
FTUS41 KLWX 201448 AAA
TAFDCA
TAF AMD
KDCA 201448Z 2015/2112 14005KT 5SM -RA SCT010 OVC050
     FM201800 15005KT 2SM -RA SCT003 OVC015
     FM202000 15005KT P6SM SCT003 OVC015
     FM202200 15005KT 3SM -DZ BR SCT003 OVC015
     FM210400 VRB03KT 3SM -DZ BR SCT003 OVC008
     FM210900 00000KT 3SM -DZ BR OVC003=

USA.gov is the U.S. government's official web portal to all federal, state and local government web resources and services.